sensor_id;sensor_type;location;lat;lon;timestamp;P1;durP1;ratioP1;P2;durP2;ratioP2
7965;SDS011;4028;43.272;26.932;2022-11-27T00:00:21;26.13;;;18.83;;
7965;SDS011;4028;43.272;26.932;2022-11-27T00:02:46;27.50;;;20.10;;
7965;SDS011;4028;43.272;26.932;2022-11-27T00:05:12;27.97;;;19.23;;
7965;SDS011;4028;43.272;26.932;2022-11-27T00:07:37;27.53;;;19.47;;
7965;SDS011;4028;43.272;26.932;2022-11-27T00:10:03;29.93;;;19.37;;
7965;SDS011;4028;43.272;26.932;2022-11-27T00:12:30;27.57;;;18.17;;
7965;SDS011;4028;43.272;26.932;2022-11-27T00:14:55;29.33;;;19.67;;
7965;SDS011;4028;43.272;26.932;2022-11-27T00:17:20;27.50;;;19.63;;
7965;SDS011;4028;43.272;26.932;2022-11-27T00:19:46;29.00;;;19.37;;
7965;SDS011;4028;43.272;26.932;2022-11-27T00:22:11;27.10;;;19.00;;
7965;SDS011;4028;43.272;26.932;2022-11-27T00:24:37;26.73;;;19.40;;
7965;SDS011;4028;43.272;26.932;2022-11-27T00:27:02;30.77;;;19.77;;
7965;SDS011;4028;43.272;26.932;2022-11-27T00:29:28;27.13;;;18.83;;
7965;SDS011;4028;43.272;26.932;2022-11-27T00:31:55;25.77;;;17.67;;
7965;SDS011;4028;43.272;26.932;2022-11-27T00:34:20;24.07;;;16.70;;
7965;SDS011;4028;43.272;26.932;2022-11-27T00:36:46;26.13;;;17.37;;
7965;SDS011;4028;43.272;26.932;2022-11-27T00:39:11;26.40;;;17.03;;
7965;SDS011;4028;43.272;26.932;2022-11-27T00:41:37;23.33;;;16.90;;
7965;SDS011;4028;43.272;26.932;2022-11-27T00:44:03;26.60;;;18.10;;
7965;SDS011;4028;43.272;26.932;2022-11-27T00:46:29;28.00;;;17.30;;
7965;SDS011;4028;43.272;26.932;2022-11-27T00:48:56;29.47;;;17.67;;
7965;SDS011;4028;43.272;26.932;2022-11-27T00:51:23;24.83;;;17.43;;
7965;SDS011;4028;43.272;26.932;2022-11-27T00:53:49;21.30;;;15.37;;
7965;SDS011;4028;43.272;26.932;2022-11-27T00:56:19;18.37;;;12.63;;
7965;SDS011;4028;43.272;26.932;2022-11-27T00:58:50;19.57;;;14.03;;
7965;SDS011;4028;43.272;26.932;2022-11-27T01:01:17;18.20;;;13.47;;
7965;SDS011;4028;43.272;26.932;2022-11-27T01:03:54;15.03;;;11.90;;
7965;SDS011;4028;43.272;26.932;2022-11-27T01:06:20;15.13;;;11.33;;
7965;SDS011;4028;43.272;26.932;2022-11-27T01:08:46;16.10;;;10.70;;
7965;SDS011;4028;43.272;26.932;2022-11-27T01:11:13;13.83;;;9.83;;
7965;SDS011;4028;43.272;26.932;2022-11-27T01:13:40;13.57;;;10.17;;
7965;SDS011;4028;43.272;26.932;2022-11-27T01:16:07;13.37;;;9.50;;
7965;SDS011;4028;43.272;26.932;2022-11-27T01:18:38;12.77;;;10.47;;
7965;SDS011;4028;43.272;26.932;2022-11-27T01:21:05;13.70;;;10.00;;
7965;SDS011;4028;43.272;26.932;2022-11-27T01:23:31;11.77;;;9.20;;
7965;SDS011;4028;43.272;26.932;2022-11-27T01:26:01;13.17;;;9.67;;
7965;SDS011;4028;43.272;26.932;2022-11-27T01:28:28;14.33;;;10.20;;
7965;SDS011;4028;43.272;26.932;2022-11-27T01:30:53;13.00;;;9.47;;
7965;SDS011;4028;43.272;26.932;2022-11-27T01:33:19;17.53;;;10.70;;
7965;SDS011;4028;43.272;26.932;2022-11-27T01:35:58;16.57;;;11.93;;
7965;SDS011;4028;43.272;26.932;2022-11-27T01:38:25;16.83;;;12.70;;
7965;SDS011;4028;43.272;26.932;2022-11-27T01:41:01;20.23;;;13.37;;
7965;SDS011;4028;43.272;26.932;2022-11-27T01:43:35;19.73;;;14.13;;
7965;SDS011;4028;43.272;26.932;2022-11-27T01:51:45;20.30;;;14.73;;
7965;SDS011;4028;43.272;26.932;2022-11-27T01:54:16;22.23;;;15.47;;
7965;SDS011;4028;43.272;26.932;2022-11-27T01:56:43;22.63;;;15.13;;
7965;SDS011;4028;43.272;26.932;2022-11-27T01:59:12;23.33;;;16.80;;
7965;SDS011;4028;43.272;26.932;2022-11-27T02:01:40;23.87;;;15.43;;
7965;SDS011;4028;43.272;26.932;2022-11-27T02:04:05;21.50;;;14.07;;
7965;SDS011;4028;43.272;26.932;2022-11-27T02:06:31;22.23;;;14.47;;
7965;SDS011;4028;43.272;26.932;2022-11-27T02:08:56;19.87;;;14.23;;
7965;SDS011;4028;43.272;26.932;2022-11-27T02:17:16;19.30;;;14.47;;
7965;SDS011;4028;43.272;26.932;2022-11-27T02:25:09;22.17;;;14.03;;
7965;SDS011;4028;43.272;26.932;2022-11-27T02:30:25;18.37;;;13.53;;
7965;SDS011;4028;43.272;26.932;2022-11-27T02:32:56;17.53;;;14.23;;
7965;SDS011;4028;43.272;26.932;2022-11-27T02:35:35;20.70;;;14.33;;
7965;SDS011;4028;43.272;26.932;2022-11-27T02:38:17;19.57;;;14.70;;
7965;SDS011;4028;43.272;26.932;2022-11-27T02:40:50;20.33;;;14.57;;
7965;SDS011;4028;43.272;26.932;2022-11-27T02:46:16;23.30;;;14.70;;
7965;SDS011;4028;43.272;26.932;2022-11-27T02:48:44;19.27;;;14.03;;
7965;SDS011;4028;43.272;26.932;2022-11-27T02:51:13;20.90;;;14.63;;
7965;SDS011;4028;43.272;26.932;2022-11-27T02:53:49;20.50;;;14.70;;
7965;SDS011;4028;43.272;26.932;2022-11-27T02:56:19;22.17;;;14.73;;
7965;SDS011;4028;43.272;26.932;2022-11-27T02:58:47;20.10;;;15.50;;
7965;SDS011;4028;43.272;26.932;2022-11-27T03:01:15;23.33;;;16.87;;
7965;SDS011;4028;43.272;26.932;2022-11-27T03:03:45;23.97;;;16.40;;
7965;SDS011;4028;43.272;26.932;2022-11-27T03:06:19;22.30;;;15.57;;
7965;SDS011;4028;43.272;26.932;2022-11-27T03:08:53;21.07;;;15.77;;
7965;SDS011;4028;43.272;26.932;2022-11-27T03:11:23;23.03;;;15.90;;
7965;SDS011;4028;43.272;26.932;2022-11-27T03:13:52;21.83;;;15.67;;
7965;SDS011;4028;43.272;26.932;2022-11-27T03:18:58;21.57;;;16.30;;
7965;SDS011;4028;43.272;26.932;2022-11-27T03:21:41;23.50;;;15.90;;
7965;SDS011;4028;43.272;26.932;2022-11-27T03:24:10;21.33;;;15.90;;
7965;SDS011;4028;43.272;26.932;2022-11-27T03:26:36;20.13;;;15.73;;
7965;SDS011;4028;43.272;26.932;2022-11-27T03:29:08;22.03;;;15.50;;
7965;SDS011;4028;43.272;26.932;2022-11-27T03:31:36;20.73;;;14.57;;
7965;SDS011;4028;43.272;26.932;2022-11-27T03:34:02;24.00;;;15.80;;
7965;SDS011;4028;43.272;26.932;2022-11-27T03:36:29;20.03;;;15.00;;
7965;SDS011;4028;43.272;26.932;2022-11-27T03:38:54;17.77;;;13.80;;
7965;SDS011;4028;43.272;26.932;2022-11-27T03:41:25;22.13;;;16.13;;
7965;SDS011;4028;43.272;26.932;2022-11-27T03:52:24;33.13;;;19.97;;
7965;SDS011;4028;43.272;26.932;2022-11-27T03:54:56;25.93;;;16.97;;
7965;SDS011;4028;43.272;26.932;2022-11-27T04:00:29;23.47;;;17.27;;
7965;SDS011;4028;43.272;26.932;2022-11-27T04:02:58;29.43;;;17.37;;
7965;SDS011;4028;43.272;26.932;2022-11-27T04:05:24;25.03;;;17.13;;
7965;SDS011;4028;43.272;26.932;2022-11-27T04:07:49;23.87;;;17.10;;
7965;SDS011;4028;43.272;26.932;2022-11-27T04:10:15;24.00;;;16.77;;
7965;SDS011;4028;43.272;26.932;2022-11-27T04:12:40;21.10;;;16.33;;
7965;SDS011;4028;43.272;26.932;2022-11-27T04:15:06;25.67;;;15.77;;
7965;SDS011;4028;43.272;26.932;2022-11-27T04:17:32;23.60;;;16.47;;
7965;SDS011;4028;43.272;26.932;2022-11-27T04:19:58;22.60;;;16.53;;
7965;SDS011;4028;43.272;26.932;2022-11-27T04:22:23;24.93;;;16.90;;
7965;SDS011;4028;43.272;26.932;2022-11-27T04:24:49;23.03;;;16.47;;
7965;SDS011;4028;43.272;26.932;2022-11-27T04:27:14;26.00;;;16.87;;
7965;SDS011;4028;43.272;26.932;2022-11-27T04:29:40;25.67;;;17.60;;
7965;SDS011;4028;43.272;26.932;2022-11-27T04:32:05;26.77;;;17.50;;
7965;SDS011;4028;43.272;26.932;2022-11-27T04:34:31;24.30;;;17.97;;
7965;SDS011;4028;43.272;26.932;2022-11-27T04:36:57;25.07;;;16.20;;
7965;SDS011;4028;43.272;26.932;2022-11-27T04:39:22;22.30;;;15.90;;
7965;SDS011;4028;43.272;26.932;2022-11-27T04:41:48;21.83;;;15.87;;
7965;SDS011;4028;43.272;26.932;2022-11-27T04:44:13;26.33;;;17.87;;
7965;SDS011;4028;43.272;26.932;2022-11-27T04:46:39;25.77;;;17.57;;
7965;SDS011;4028;43.272;26.932;2022-11-27T04:49:05;29.30;;;20.23;;
7965;SDS011;4028;43.272;26.932;2022-11-27T04:51:30;24.57;;;18.33;;
7965;SDS011;4028;43.272;26.932;2022-11-27T04:53:56;28.83;;;19.27;;
7965;SDS011;4028;43.272;26.932;2022-11-27T04:56:21;28.40;;;19.37;;
7965;SDS011;4028;43.272;26.932;2022-11-27T04:58:47;24.57;;;18.33;;
7965;SDS011;4028;43.272;26.932;2022-11-27T05:01:12;22.43;;;16.77;;
7965;SDS011;4028;43.272;26.932;2022-11-27T05:03:38;27.73;;;16.83;;
7965;SDS011;4028;43.272;26.932;2022-11-27T05:06:03;25.77;;;15.97;;
7965;SDS011;4028;43.272;26.932;2022-11-27T05:08:29;21.87;;;15.87;;
7965;SDS011;4028;43.272;26.932;2022-11-27T05:13:24;24.73;;;15.93;;
7965;SDS011;4028;43.272;26.932;2022-11-27T05:15:49;21.70;;;15.53;;
7965;SDS011;4028;43.272;26.932;2022-11-27T05:18:15;21.37;;;15.87;;
7965;SDS011;4028;43.272;26.932;2022-11-27T05:20:40;25.20;;;14.77;;
7965;SDS011;4028;43.272;26.932;2022-11-27T05:23:06;28.23;;;16.30;;
7965;SDS011;4028;43.272;26.932;2022-11-27T05:25:31;24.60;;;17.17;;
7965;SDS011;4028;43.272;26.932;2022-11-27T05:27:56;24.27;;;15.83;;
7965;SDS011;4028;43.272;26.932;2022-11-27T05:30:22;23.30;;;16.20;;
7965;SDS011;4028;43.272;26.932;2022-11-27T05:32:47;20.97;;;15.63;;
7965;SDS011;4028;43.272;26.932;2022-11-27T05:35:13;24.13;;;16.50;;
7965;SDS011;4028;43.272;26.932;2022-11-27T05:37:38;28.70;;;19.37;;
7965;SDS011;4028;43.272;26.932;2022-11-27T05:40:04;30.80;;;21.23;;
7965;SDS011;4028;43.272;26.932;2022-11-27T05:42:30;32.20;;;21.07;;
7965;SDS011;4028;43.272;26.932;2022-11-27T05:44:56;29.97;;;20.63;;
7965;SDS011;4028;43.272;26.932;2022-11-27T05:47:21;30.57;;;19.47;;
7965;SDS011;4028;43.272;26.932;2022-11-27T05:49:47;25.47;;;18.20;;
7965;SDS011;4028;43.272;26.932;2022-11-27T05:52:12;23.47;;;17.33;;
7965;SDS011;4028;43.272;26.932;2022-11-27T05:54:38;24.57;;;17.90;;
7965;SDS011;4028;43.272;26.932;2022-11-27T05:57:03;23.63;;;17.03;;
7965;SDS011;4028;43.272;26.932;2022-11-27T05:59:29;25.37;;;15.40;;
7965;SDS011;4028;43.272;26.932;2022-11-27T06:01:54;25.47;;;16.90;;
7965;SDS011;4028;43.272;26.932;2022-11-27T06:04:19;20.40;;;15.33;;
7965;SDS011;4028;43.272;26.932;2022-11-27T06:06:45;22.33;;;14.80;;
7965;SDS011;4028;43.272;26.932;2022-11-27T06:09:10;17.33;;;13.03;;
7965;SDS011;4028;43.272;26.932;2022-11-27T06:11:36;19.53;;;13.90;;
7965;SDS011;4028;43.272;26.932;2022-11-27T06:14:02;18.03;;;11.73;;
7965;SDS011;4028;43.272;26.932;2022-11-27T06:16:27;17.67;;;10.67;;
7965;SDS011;4028;43.272;26.932;2022-11-27T06:18:54;13.73;;;10.57;;
7965;SDS011;4028;43.272;26.932;2022-11-27T06:21:20;13.47;;;10.37;;
7965;SDS011;4028;43.272;26.932;2022-11-27T06:23:47;14.27;;;9.87;;
7965;SDS011;4028;43.272;26.932;2022-11-27T06:26:15;13.33;;;9.77;;
7965;SDS011;4028;43.272;26.932;2022-11-27T06:28:42;12.57;;;9.43;;
7965;SDS011;4028;43.272;26.932;2022-11-27T06:31:09;12.67;;;9.97;;
7965;SDS011;4028;43.272;26.932;2022-11-27T06:33:37;13.50;;;9.80;;
7965;SDS011;4028;43.272;26.932;2022-11-27T06:36:03;16.40;;;12.40;;
7965;SDS011;4028;43.272;26.932;2022-11-27T06:38:30;19.23;;;14.07;;
7965;SDS011;4028;43.272;26.932;2022-11-27T06:41:03;17.53;;;13.20;;
7965;SDS011;4028;43.272;26.932;2022-11-27T06:43:31;16.00;;;11.63;;
7965;SDS011;4028;43.272;26.932;2022-11-27T06:45:57;16.07;;;11.40;;
7965;SDS011;4028;43.272;26.932;2022-11-27T06:48:24;14.63;;;11.17;;
7965;SDS011;4028;43.272;26.932;2022-11-27T06:50:49;14.43;;;11.67;;
7965;SDS011;4028;43.272;26.932;2022-11-27T06:53:15;12.90;;;10.90;;
7965;SDS011;4028;43.272;26.932;2022-11-27T06:55:40;16.90;;;11.53;;
7965;SDS011;4028;43.272;26.932;2022-11-27T06:58:06;18.40;;;12.10;;
7965;SDS011;4028;43.272;26.932;2022-11-27T07:00:31;19.57;;;13.73;;
7965;SDS011;4028;43.272;26.932;2022-11-27T07:02:57;18.73;;;14.70;;
7965;SDS011;4028;43.272;26.932;2022-11-27T07:05:22;21.00;;;16.03;;
7965;SDS011;4028;43.272;26.932;2022-11-27T07:07:48;26.33;;;19.03;;
7965;SDS011;4028;43.272;26.932;2022-11-27T07:10:14;20.80;;;16.93;;
7965;SDS011;4028;43.272;26.932;2022-11-27T07:12:40;29.80;;;18.90;;
7965;SDS011;4028;43.272;26.932;2022-11-27T07:15:06;25.53;;;18.63;;
7965;SDS011;4028;43.272;26.932;2022-11-27T07:17:32;25.30;;;18.50;;
7965;SDS011;4028;43.272;26.932;2022-11-27T07:19:57;27.20;;;19.73;;
7965;SDS011;4028;43.272;26.932;2022-11-27T07:22:23;27.87;;;18.47;;
7965;SDS011;4028;43.272;26.932;2022-11-27T07:24:48;27.23;;;19.37;;
7965;SDS011;4028;43.272;26.932;2022-11-27T07:27:14;23.33;;;17.90;;
7965;SDS011;4028;43.272;26.932;2022-11-27T07:29:39;22.27;;;15.43;;
7965;SDS011;4028;43.272;26.932;2022-11-27T07:32:05;22.70;;;14.50;;
7965;SDS011;4028;43.272;26.932;2022-11-27T07:34:30;17.77;;;14.57;;
7965;SDS011;4028;43.272;26.932;2022-11-27T07:36:55;19.90;;;16.30;;
7965;SDS011;4028;43.272;26.932;2022-11-27T07:39:21;25.93;;;15.90;;
7965;SDS011;4028;43.272;26.932;2022-11-27T07:41:47;22.23;;;17.83;;
7965;SDS011;4028;43.272;26.932;2022-11-27T07:44:12;20.50;;;16.53;;
7965;SDS011;4028;43.272;26.932;2022-11-27T07:46:38;22.23;;;17.33;;
7965;SDS011;4028;43.272;26.932;2022-11-27T07:49:03;22.23;;;17.47;;
7965;SDS011;4028;43.272;26.932;2022-11-27T07:51:29;23.70;;;16.73;;
7965;SDS011;4028;43.272;26.932;2022-11-27T07:53:54;25.23;;;19.40;;
7965;SDS011;4028;43.272;26.932;2022-11-27T07:56:20;28.50;;;20.07;;
7965;SDS011;4028;43.272;26.932;2022-11-27T07:58:46;23.77;;;18.37;;
7965;SDS011;4028;43.272;26.932;2022-11-27T08:01:13;23.57;;;18.63;;
7965;SDS011;4028;43.272;26.932;2022-11-27T08:03:40;23.90;;;17.67;;
7965;SDS011;4028;43.272;26.932;2022-11-27T08:06:13;27.57;;;18.53;;
7965;SDS011;4028;43.272;26.932;2022-11-27T08:08:43;24.53;;;18.27;;
7965;SDS011;4028;43.272;26.932;2022-11-27T08:11:20;24.73;;;17.50;;
7965;SDS011;4028;43.272;26.932;2022-11-27T08:13:53;22.47;;;15.90;;
7965;SDS011;4028;43.272;26.932;2022-11-27T08:16:21;24.20;;;16.17;;
7965;SDS011;4028;43.272;26.932;2022-11-27T08:18:46;20.83;;;16.53;;
7965;SDS011;4028;43.272;26.932;2022-11-27T08:21:12;24.13;;;17.10;;
7965;SDS011;4028;43.272;26.932;2022-11-27T08:23:38;23.90;;;17.70;;
7965;SDS011;4028;43.272;26.932;2022-11-27T08:26:04;21.90;;;15.93;;
7965;SDS011;4028;43.272;26.932;2022-11-27T08:28:33;20.07;;;14.97;;
7965;SDS011;4028;43.272;26.932;2022-11-27T08:31:00;23.43;;;16.97;;
7965;SDS011;4028;43.272;26.932;2022-11-27T08:33:27;20.17;;;15.23;;
7965;SDS011;4028;43.272;26.932;2022-11-27T08:35:53;18.43;;;13.43;;
7965;SDS011;4028;43.272;26.932;2022-11-27T08:38:18;20.70;;;14.17;;
7965;SDS011;4028;43.272;26.932;2022-11-27T08:40:44;16.87;;;13.70;;
7965;SDS011;4028;43.272;26.932;2022-11-27T08:43:10;16.80;;;13.40;;
7965;SDS011;4028;43.272;26.932;2022-11-27T08:45:38;17.63;;;13.10;;
7965;SDS011;4028;43.272;26.932;2022-11-27T08:48:04;16.07;;;12.43;;
7965;SDS011;4028;43.272;26.932;2022-11-27T08:50:29;19.40;;;13.17;;
7965;SDS011;4028;43.272;26.932;2022-11-27T08:52:55;16.47;;;12.83;;
7965;SDS011;4028;43.272;26.932;2022-11-27T08:55:21;14.83;;;11.33;;
7965;SDS011;4028;43.272;26.932;2022-11-27T08:57:46;17.13;;;12.83;;
7965;SDS011;4028;43.272;26.932;2022-11-27T09:00:12;17.83;;;13.03;;
7965;SDS011;4028;43.272;26.932;2022-11-27T09:02:38;19.07;;;12.97;;
7965;SDS011;4028;43.272;26.932;2022-11-27T09:05:04;16.30;;;12.87;;
7965;SDS011;4028;43.272;26.932;2022-11-27T09:07:29;16.53;;;12.57;;
7965;SDS011;4028;43.272;26.932;2022-11-27T09:09:55;15.93;;;11.57;;
7965;SDS011;4028;43.272;26.932;2022-11-27T09:12:21;18.37;;;12.87;;
7965;SDS011;4028;43.272;26.932;2022-11-27T09:14:46;16.63;;;13.30;;
7965;SDS011;4028;43.272;26.932;2022-11-27T09:17:12;17.70;;;11.90;;
7965;SDS011;4028;43.272;26.932;2022-11-27T09:19:37;15.53;;;11.93;;
7965;SDS011;4028;43.272;26.932;2022-11-27T09:22:03;16.17;;;12.20;;
7965;SDS011;4028;43.272;26.932;2022-11-27T09:24:28;14.67;;;11.27;;
7965;SDS011;4028;43.272;26.932;2022-11-27T09:26:54;17.50;;;11.37;;
7965;SDS011;4028;43.272;26.932;2022-11-27T09:29:19;15.80;;;11.90;;
7965;SDS011;4028;43.272;26.932;2022-11-27T09:31:45;16.43;;;11.87;;
7965;SDS011;4028;43.272;26.932;2022-11-27T09:34:10;14.97;;;11.43;;
7965;SDS011;4028;43.272;26.932;2022-11-27T09:36:37;14.57;;;10.80;;
7965;SDS011;4028;43.272;26.932;2022-11-27T09:39:02;13.53;;;10.40;;
7965;SDS011;4028;43.272;26.932;2022-11-27T09:46:57;14.30;;;11.07;;
7965;SDS011;4028;43.272;26.932;2022-11-27T09:57:24;12.37;;;9.53;;
7965;SDS011;4028;43.272;26.932;2022-11-27T09:59:53;13.17;;;9.33;;
7965;SDS011;4028;43.272;26.932;2022-11-27T10:02:26;11.03;;;9.07;;
7965;SDS011;4028;43.272;26.932;2022-11-27T10:04:54;14.13;;;11.27;;
7965;SDS011;4028;43.272;26.932;2022-11-27T10:12:56;11.27;;;8.53;;
7965;SDS011;4028;43.272;26.932;2022-11-27T10:21:02;11.37;;;8.77;;
7965;SDS011;4028;43.272;26.932;2022-11-27T10:29:12;9.40;;;6.80;;
7965;SDS011;4028;43.272;26.932;2022-11-27T10:32:16;7.43;;;6.37;;
7965;SDS011;4028;43.272;26.932;2022-11-27T10:34:49;9.13;;;7.20;;
7965;SDS011;4028;43.272;26.932;2022-11-27T10:37:22;10.17;;;6.63;;
7965;SDS011;4028;43.272;26.932;2022-11-27T10:39:59;7.53;;;5.40;;
7965;SDS011;4028;43.272;26.932;2022-11-27T10:45:09;7.00;;;5.97;;
7965;SDS011;4028;43.272;26.932;2022-11-27T10:47:48;8.87;;;6.90;;
7965;SDS011;4028;43.272;26.932;2022-11-27T10:50:15;13.20;;;7.37;;
7965;SDS011;4028;43.272;26.932;2022-11-27T10:53:02;8.47;;;6.40;;
7965;SDS011;4028;43.272;26.932;2022-11-27T11:01:20;8.83;;;5.63;;
7965;SDS011;4028;43.272;26.932;2022-11-27T11:03:46;8.10;;;6.50;;
7965;SDS011;4028;43.272;26.932;2022-11-27T11:06:19;10.87;;;7.50;;
7965;SDS011;4028;43.272;26.932;2022-11-27T11:08:48;7.77;;;6.50;;
7965;SDS011;4028;43.272;26.932;2022-11-27T11:11:26;9.63;;;6.33;;
7965;SDS011;4028;43.272;26.932;2022-11-27T11:13:52;10.00;;;6.33;;
7965;SDS011;4028;43.272;26.932;2022-11-27T11:16:23;8.73;;;6.87;;
7965;SDS011;4028;43.272;26.932;2022-11-27T11:18:54;7.97;;;6.50;;
7965;SDS011;4028;43.272;26.932;2022-11-27T11:29:05;7.77;;;6.70;;
7965;SDS011;4028;43.272;26.932;2022-11-27T11:31:43;11.00;;;8.77;;
7965;SDS011;4028;43.272;26.932;2022-11-27T11:34:21;10.40;;;8.00;;
7965;SDS011;4028;43.272;26.932;2022-11-27T11:39:33;10.40;;;7.70;;
7965;SDS011;4028;43.272;26.932;2022-11-27T11:42:19;10.33;;;8.03;;
7965;SDS011;4028;43.272;26.932;2022-11-27T11:45:20;10.63;;;7.73;;
7965;SDS011;4028;43.272;26.932;2022-11-27T11:47:45;9.77;;;7.97;;
7965;SDS011;4028;43.272;26.932;2022-11-27T11:50:13;10.67;;;8.23;;
7965;SDS011;4028;43.272;26.932;2022-11-27T11:55:28;15.10;;;10.00;;
7965;SDS011;4028;43.272;26.932;2022-11-27T11:58:09;11.17;;;9.70;;
7965;SDS011;4028;43.272;26.932;2022-11-27T12:01:14;15.63;;;10.67;;
7965;SDS011;4028;43.272;26.932;2022-11-27T12:03:52;12.23;;;8.93;;
7965;SDS011;4028;43.272;26.932;2022-11-27T12:06:35;10.93;;;9.00;;
7965;SDS011;4028;43.272;26.932;2022-11-27T12:15:02;13.20;;;9.40;;
7965;SDS011;4028;43.272;26.932;2022-11-27T12:25:52;11.80;;;9.07;;
7965;SDS011;4028;43.272;26.932;2022-11-27T12:39:22;14.23;;;10.27;;
7965;SDS011;4028;43.272;26.932;2022-11-27T12:47:43;13.63;;;9.50;;
7965;SDS011;4028;43.272;26.932;2022-11-27T13:04:02;13.27;;;8.97;;
7965;SDS011;4028;43.272;26.932;2022-11-27T13:10:37;16.20;;;9.60;;
7965;SDS011;4028;43.272;26.932;2022-11-27T13:13:13;10.10;;;8.13;;
7965;SDS011;4028;43.272;26.932;2022-11-27T13:15:51;14.13;;;10.57;;
7965;SDS011;4028;43.272;26.932;2022-11-27T13:20:42;11.63;;;9.43;;
7965;SDS011;4028;43.272;26.932;2022-11-27T13:23:10;13.20;;;9.00;;
7965;SDS011;4028;43.272;26.932;2022-11-27T13:50:40;13.20;;;7.63;;
7965;SDS011;4028;43.272;26.932;2022-11-27T13:53:07;13.33;;;8.87;;
7965;SDS011;4028;43.272;26.932;2022-11-27T13:55:34;12.37;;;9.10;;
7965;SDS011;4028;43.272;26.932;2022-11-27T13:58:02;22.80;;;10.50;;
7965;SDS011;4028;43.272;26.932;2022-11-27T14:00:33;14.97;;;10.27;;
7965;SDS011;4028;43.272;26.932;2022-11-27T14:02:58;18.80;;;10.40;;
7965;SDS011;4028;43.272;26.932;2022-11-27T14:05:38;15.53;;;10.63;;
7965;SDS011;4028;43.272;26.932;2022-11-27T14:08:23;14.03;;;10.90;;
7965;SDS011;4028;43.272;26.932;2022-11-27T14:11:05;18.50;;;12.77;;
7965;SDS011;4028;43.272;26.932;2022-11-27T14:13:39;16.17;;;12.03;;
7965;SDS011;4028;43.272;26.932;2022-11-27T14:21:47;19.57;;;13.30;;
7965;SDS011;4028;43.272;26.932;2022-11-27T14:30:28;18.73;;;13.83;;
7965;SDS011;4028;43.272;26.932;2022-11-27T14:45:44;21.23;;;15.27;;
7965;SDS011;4028;43.272;26.932;2022-11-27T14:48:20;23.70;;;16.33;;
7965;SDS011;4028;43.272;26.932;2022-11-27T14:57:30;21.10;;;14.17;;
7965;SDS011;4028;43.272;26.932;2022-11-27T15:00:00;31.17;;;15.57;;
7965;SDS011;4028;43.272;26.932;2022-11-27T15:02:39;21.80;;;16.20;;
7965;SDS011;4028;43.272;26.932;2022-11-27T15:05:05;19.57;;;15.77;;
7965;SDS011;4028;43.272;26.932;2022-11-27T15:07:32;20.13;;;15.67;;
7965;SDS011;4028;43.272;26.932;2022-11-27T15:10:01;20.73;;;14.87;;
7965;SDS011;4028;43.272;26.932;2022-11-27T15:12:32;24.90;;;15.73;;
7965;SDS011;4028;43.272;26.932;2022-11-27T15:15:00;22.47;;;15.93;;
7965;SDS011;4028;43.272;26.932;2022-11-27T15:17:31;26.13;;;17.33;;
7965;SDS011;4028;43.272;26.932;2022-11-27T15:20:01;25.93;;;17.63;;
7965;SDS011;4028;43.272;26.932;2022-11-27T15:22:36;28.93;;;18.23;;
7965;SDS011;4028;43.272;26.932;2022-11-27T15:25:05;29.07;;;17.23;;
7965;SDS011;4028;43.272;26.932;2022-11-27T15:27:51;29.60;;;19.00;;
7965;SDS011;4028;43.272;26.932;2022-11-27T15:30:17;28.20;;;19.53;;
7965;SDS011;4028;43.272;26.932;2022-11-27T15:32:46;24.60;;;17.87;;
7965;SDS011;4028;43.272;26.932;2022-11-27T15:35:24;25.67;;;18.83;;
7965;SDS011;4028;43.272;26.932;2022-11-27T15:37:50;26.40;;;17.93;;
7965;SDS011;4028;43.272;26.932;2022-11-27T15:42:53;25.20;;;17.37;;
7965;SDS011;4028;43.272;26.932;2022-11-27T15:45:19;24.23;;;17.77;;
7965;SDS011;4028;43.272;26.932;2022-11-27T15:47:44;25.43;;;18.17;;
7965;SDS011;4028;43.272;26.932;2022-11-27T15:50:14;29.00;;;19.00;;
7965;SDS011;4028;43.272;26.932;2022-11-27T17:17:41;28.43;;;21.87;;
7965;SDS011;4028;43.272;26.932;2022-11-27T17:20:07;30.33;;;21.93;;
7965;SDS011;4028;43.272;26.932;2022-11-27T17:22:33;32.10;;;22.30;;
7965;SDS011;4028;43.272;26.932;2022-11-27T17:24:59;31.13;;;22.67;;
7965;SDS011;4028;43.272;26.932;2022-11-27T17:27:24;31.87;;;22.57;;
7965;SDS011;4028;43.272;26.932;2022-11-27T17:29:50;33.77;;;23.03;;
7965;SDS011;4028;43.272;26.932;2022-11-27T17:32:15;31.70;;;22.23;;
7965;SDS011;4028;43.272;26.932;2022-11-27T17:34:42;39.67;;;23.90;;
7965;SDS011;4028;43.272;26.932;2022-11-27T17:37:09;32.63;;;23.83;;
7965;SDS011;4028;43.272;26.932;2022-11-27T17:39:34;32.13;;;21.93;;
7965;SDS011;4028;43.272;26.932;2022-11-27T17:42:00;31.77;;;21.60;;
7965;SDS011;4028;43.272;26.932;2022-11-27T17:44:25;35.50;;;23.57;;
7965;SDS011;4028;43.272;26.932;2022-11-27T17:46:51;34.50;;;22.47;;
7965;SDS011;4028;43.272;26.932;2022-11-27T17:49:16;30.80;;;21.43;;
7965;SDS011;4028;43.272;26.932;2022-11-27T17:51:43;34.40;;;22.87;;
7965;SDS011;4028;43.272;26.932;2022-11-27T17:54:09;30.47;;;22.43;;
7965;SDS011;4028;43.272;26.932;2022-11-27T17:56:35;32.13;;;21.97;;
7965;SDS011;4028;43.272;26.932;2022-11-27T17:59:00;30.33;;;22.20;;
7965;SDS011;4028;43.272;26.932;2022-11-27T18:01:27;33.20;;;21.90;;
7965;SDS011;4028;43.272;26.932;2022-11-27T18:03:53;32.00;;;22.57;;
7965;SDS011;4028;43.272;26.932;2022-11-27T18:06:20;36.87;;;24.03;;
7965;SDS011;4028;43.272;26.932;2022-11-27T18:08:49;35.97;;;24.03;;
7965;SDS011;4028;43.272;26.932;2022-11-27T18:11:19;32.13;;;23.90;;
7965;SDS011;4028;43.272;26.932;2022-11-27T18:13:48;34.03;;;25.13;;
7965;SDS011;4028;43.272;26.932;2022-11-27T18:16:18;37.63;;;24.97;;
7965;SDS011;4028;43.272;26.932;2022-11-27T18:18:46;39.10;;;26.73;;
7965;SDS011;4028;43.272;26.932;2022-11-27T18:21:14;38.67;;;26.27;;
7965;SDS011;4028;43.272;26.932;2022-11-27T18:23:41;40.30;;;28.00;;
7965;SDS011;4028;43.272;26.932;2022-11-27T18:26:11;39.70;;;27.77;;
7965;SDS011;4028;43.272;26.932;2022-11-27T18:28:39;40.50;;;28.17;;
7965;SDS011;4028;43.272;26.932;2022-11-27T18:31:13;35.67;;;25.77;;
7965;SDS011;4028;43.272;26.932;2022-11-27T18:33:40;39.20;;;25.93;;
7965;SDS011;4028;43.272;26.932;2022-11-27T18:36:06;37.67;;;25.13;;
7965;SDS011;4028;43.272;26.932;2022-11-27T18:38:35;40.73;;;24.77;;
7965;SDS011;4028;43.272;26.932;2022-11-27T18:43:41;40.30;;;26.00;;
7965;SDS011;4028;43.272;26.932;2022-11-27T18:46:08;34.90;;;24.50;;
7965;SDS011;4028;43.272;26.932;2022-11-27T18:48:35;33.37;;;23.37;;
7965;SDS011;4028;43.272;26.932;2022-11-27T18:51:06;32.33;;;23.23;;
7965;SDS011;4028;43.272;26.932;2022-11-27T18:53:33;30.43;;;21.70;;
7965;SDS011;4028;43.272;26.932;2022-11-27T18:56:18;30.67;;;21.83;;
7965;SDS011;4028;43.272;26.932;2022-11-27T18:58:46;36.07;;;22.33;;
7965;SDS011;4028;43.272;26.932;2022-11-27T19:01:13;38.73;;;24.90;;
7965;SDS011;4028;43.272;26.932;2022-11-27T19:03:40;33.57;;;24.17;;
7965;SDS011;4028;43.272;26.932;2022-11-27T19:06:07;32.57;;;23.13;;
7965;SDS011;4028;43.272;26.932;2022-11-27T19:08:34;35.13;;;24.90;;
7965;SDS011;4028;43.272;26.932;2022-11-27T19:11:00;37.70;;;26.30;;
7965;SDS011;4028;43.272;26.932;2022-11-27T19:13:30;36.27;;;25.47;;
7965;SDS011;4028;43.272;26.932;2022-11-27T19:15:57;36.97;;;24.47;;
7965;SDS011;4028;43.272;26.932;2022-11-27T19:18:22;39.93;;;27.50;;
7965;SDS011;4028;43.272;26.932;2022-11-27T19:20:48;44.90;;;29.87;;
7965;SDS011;4028;43.272;26.932;2022-11-27T19:23:14;40.40;;;27.23;;
7965;SDS011;4028;43.272;26.932;2022-11-27T19:25:40;38.07;;;25.53;;
7965;SDS011;4028;43.272;26.932;2022-11-27T19:28:07;37.77;;;25.17;;
7965;SDS011;4028;43.272;26.932;2022-11-27T19:30:34;39.43;;;26.47;;
7965;SDS011;4028;43.272;26.932;2022-11-27T19:33:00;37.67;;;27.23;;